createdAt,value
2022-08-26T03:04:31.102Z,99.90
2022-08-26T03:07:01.073Z,99.90
2022-08-26T03:09:28.553Z,99.90
2022-08-26T03:11:55.789Z,99.90
2022-08-26T03:14:25.677Z,99.90
2022-08-26T03:16:55.104Z,99.90
2022-08-26T03:19:24.773Z,99.90
2022-08-26T03:21:53.654Z,99.90
2022-08-26T03:24:26.126Z,99.90
2022-08-26T03:26:53.358Z,99.90
2022-08-26T03:29:40.108Z,99.90
2022-08-26T03:32:07.776Z,99.90
2022-08-26T03:34:35.302Z,99.90
2022-08-26T03:37:02.690Z,99.90
2022-08-26T03:39:31.689Z,99.90
2022-08-26T03:41:59.924Z,99.90
2022-08-26T03:44:27.242Z,99.90
2022-08-26T03:46:55.018Z,99.90
2022-08-26T03:49:22.606Z,99.90
2022-08-26T03:51:50.439Z,99.90
2022-08-26T03:54:18.240Z,99.90
2022-08-26T03:56:46.560Z,99.90
2022-08-26T03:59:14.026Z,99.90
2022-08-26T04:01:41.775Z,99.90
2022-08-26T04:04:09.245Z,99.90
2022-08-26T04:06:44.919Z,99.90
2022-08-26T04:09:19.543Z,99.90
2022-08-26T04:11:50.623Z,99.90
2022-08-26T04:14:21.047Z,99.90
2022-08-26T04:16:48.563Z,99.90
2022-08-26T04:19:16.729Z,99.90
2022-08-26T04:21:45.153Z,99.90
2022-08-26T04:24:15.580Z,99.90
2022-08-26T04:26:43.878Z,99.90
2022-08-26T04:29:14.300Z,99.90
2022-08-26T04:31:41.682Z,99.90
2022-08-26T04:34:10.995Z,99.90
2022-08-26T04:36:39.129Z,99.90
2022-08-26T04:39:07.041Z,99.90
2022-08-26T04:41:34.315Z,99.90
2022-08-26T04:44:03.651Z,99.90
2022-08-26T04:46:30.960Z,99.90
2022-08-26T04:48:59.131Z,99.90
2022-08-26T04:51:29.379Z,99.90
2022-08-26T04:53:58.195Z,99.90
2022-08-26T04:56:27.966Z,99.90
2022-08-26T04:58:56.457Z,99.90
2022-08-26T05:01:24.448Z,99.90
2022-08-26T05:03:52.623Z,99.90
2022-08-26T05:06:20.556Z,99.90
2022-08-26T05:08:49.274Z,99.90
2022-08-26T05:11:16.624Z,99.90
2022-08-26T05:13:43.863Z,99.90
2022-08-26T05:16:13.716Z,99.90
2022-08-26T05:18:43.514Z,99.90
2022-08-26T05:21:21.521Z,99.90
2022-08-26T05:23:51.316Z,99.90
2022-08-26T05:26:22.886Z,99.90
2022-08-26T05:28:51.712Z,99.90
2022-08-26T05:31:28.361Z,99.90
2022-08-26T05:33:57.588Z,99.90
2022-08-26T05:36:28.212Z,99.90
2022-08-26T05:38:56.576Z,99.90
2022-08-26T05:41:34.614Z,99.90
2022-08-26T05:44:07.298Z,99.90
2022-08-26T05:46:35.912Z,99.90
2022-08-26T05:49:04.519Z,99.90
2022-08-26T05:51:33.465Z,99.90
2022-08-26T05:54:04.047Z,99.90
2022-08-26T05:56:31.500Z,99.90
2022-08-26T05:59:01.461Z,99.90
2022-08-26T06:01:29.993Z,99.90
2022-08-26T06:04:01.620Z,99.90
2022-08-26T06:06:32.315Z,99.90
2022-08-26T06:09:02.037Z,99.90
2022-08-26T06:11:32.443Z,99.90
2022-08-26T06:14:03.894Z,99.90
2022-08-26T06:16:34.857Z,99.90
2022-08-26T06:19:10.427Z,99.90
2022-08-26T06:21:40.282Z,99.90
2022-08-26T06:24:28.848Z,99.90
2022-08-26T06:26:59.012Z,99.90
2022-08-26T06:29:27.025Z,99.90
2022-08-26T06:31:56.435Z,99.90
2022-08-26T06:34:29.950Z,99.90
2022-08-26T06:37:02.367Z,99.90
2022-08-26T06:39:31.066Z,99.90
2022-08-26T06:42:02.947Z,98.80
2022-08-26T06:44:30.863Z,96.70
2022-08-26T06:46:59.696Z,96.10
2022-08-26T06:49:27.793Z,95.40
2022-08-26T06:51:59.576Z,95.00
2022-08-26T06:54:30.317Z,94.80
2022-08-26T06:56:57.906Z,94.50
2022-08-26T06:59:25.411Z,93.20
2022-08-26T07:01:53.331Z,94.60
2022-08-26T07:04:23.103Z,93.50
2022-08-26T07:06:53.400Z,93.40
2022-08-26T07:09:23.431Z,92.00
2022-08-26T07:11:51.368Z,92.60
2022-08-26T07:14:21.167Z,90.50
2022-08-26T07:16:50.383Z,88.30
2022-08-26T07:19:29.939Z,87.00
2022-08-26T07:22:04.617Z,84.00
2022-08-26T07:24:38.376Z,84.30
2022-08-26T07:27:08.645Z,85.60
2022-08-26T07:29:37.586Z,85.00
2022-08-26T07:32:05.599Z,81.60
2022-08-26T07:34:33.501Z,79.10
2022-08-26T07:37:01.381Z,79.80
2022-08-26T07:39:31.578Z,81.60
2022-08-26T07:42:07.583Z,81.70
2022-08-26T07:44:37.441Z,80.20
2022-08-26T07:47:24.071Z,77.80
2022-08-26T07:49:57.617Z,78.40
2022-08-26T07:52:27.529Z,81.20
2022-08-26T07:55:01.468Z,82.20
2022-08-26T07:57:30.422Z,80.70
2022-08-26T07:59:58.614Z,81.60
2022-08-26T08:02:29.498Z,82.90
2022-08-26T08:04:58.326Z,84.30
2022-08-26T08:07:44.177Z,84.50
2022-08-26T08:10:19.138Z,85.90
2022-08-26T08:12:49.039Z,86.70
2022-08-26T08:15:21.131Z,84.90
2022-08-26T08:17:50.580Z,85.60
2022-08-26T08:20:20.817Z,86.50
2022-08-26T08:22:48.752Z,80.70
2022-08-26T08:25:16.844Z,78.90
2022-08-26T08:27:48.731Z,79.00
2022-08-26T08:30:19.380Z,77.50
2022-08-26T08:32:50.534Z,74.70
2022-08-26T08:35:21.092Z,76.50
2022-08-26T08:37:50.873Z,72.80
2022-08-26T08:40:18.287Z,71.60
2022-08-26T08:43:03.949Z,71.50
2022-08-26T08:45:47.261Z,69.30
2022-08-26T08:48:19.684Z,69.40
2022-08-26T08:50:52.405Z,63.90
2022-08-26T08:53:42.125Z,65.00
2022-08-26T08:56:35.248Z,65.00
2022-08-26T08:59:24.214Z,65.20
2022-08-26T09:01:55.519Z,66.60
2022-08-26T09:04:25.507Z,64.40
2022-08-26T09:09:51.873Z,63.60
2022-08-26T09:12:30.325Z,60.80
2022-08-26T09:15:17.637Z,61.70
2022-08-26T09:18:26.837Z,61.20
2022-08-26T09:21:07.781Z,65.70
2022-08-26T09:23:37.553Z,61.70
2022-08-26T09:26:25.926Z,63.50
2022-08-26T09:28:59.575Z,64.80
2022-08-26T09:31:27.528Z,66.00
2022-08-26T09:34:12.435Z,66.70
2022-08-26T09:36:55.677Z,64.00
2022-08-26T09:39:28.262Z,66.90
2022-08-26T09:42:11.710Z,67.20
2022-08-26T09:44:59.512Z,66.70
2022-08-26T09:47:32.564Z,69.30
2022-08-26T09:50:19.435Z,66.10
2022-08-26T09:53:03.031Z,66.70
2022-08-26T09:55:38.267Z,69.10
2022-08-26T09:58:08.928Z,70.30
2022-08-26T10:00:40.400Z,67.60
2022-08-26T10:03:15.550Z,68.40
2022-08-26T10:06:01.042Z,69.80
2022-08-26T10:08:33.030Z,69.60
2022-08-26T10:11:04.478Z,69.50
2022-08-26T10:13:33.593Z,70.50
2022-08-26T10:16:19.286Z,70.80
2022-08-26T10:19:00.795Z,71.50
2022-08-26T10:21:31.332Z,74.50
2022-08-26T10:24:01.973Z,73.60
2022-08-26T10:27:02.347Z,74.70
2022-08-26T10:29:40.843Z,72.90
2022-08-26T10:32:21.812Z,68.90
2022-08-26T10:34:49.072Z,69.30
2022-08-26T10:37:22.782Z,70.00
2022-08-26T10:40:02.922Z,70.30
2022-08-26T10:42:41.885Z,69.90
2022-08-26T10:45:16.652Z,71.30
2022-08-26T10:47:50.568Z,68.40
2022-08-26T10:50:19.830Z,73.60
2022-08-26T10:53:26.389Z,72.10
2022-08-26T10:56:38.941Z,72.60
2022-08-26T10:59:12.758Z,76.10
2022-08-26T11:01:54.880Z,73.00
2022-08-26T11:04:35.013Z,69.10
2022-08-26T11:07:41.303Z,66.70
2022-08-26T11:10:20.695Z,67.30
2022-08-26T11:12:52.209Z,71.40
2022-08-26T11:15:24.558Z,72.00
2022-08-26T11:17:52.301Z,71.50
2022-08-26T11:20:42.136Z,73.40
2022-08-26T11:23:12.586Z,76.90
2022-08-26T11:26:05.320Z,74.40
2022-08-26T11:28:36.864Z,75.00
2022-08-26T11:31:08.636Z,77.50
2022-08-26T11:34:12.930Z,76.50
2022-08-26T11:36:42.103Z,74.50
2022-08-26T11:39:21.134Z,73.70
2022-08-26T11:41:52.722Z,74.80
2022-08-26T11:44:23.504Z,75.50
2022-08-26T11:47:00.157Z,76.60
2022-08-26T11:49:31.861Z,75.60
2022-08-26T11:52:11.266Z,72.30
2022-08-26T11:54:39.125Z,73.60
2022-08-26T11:57:12.338Z,77.00
2022-08-26T11:59:42.279Z,77.60
2022-08-26T12:02:16.794Z,75.70
2022-08-26T12:04:49.057Z,75.40
2022-08-26T12:07:18.501Z,73.70
2022-08-26T12:10:04.067Z,76.00
2022-08-26T12:12:38.573Z,75.80
2022-08-26T12:15:10.083Z,76.20
2022-08-26T12:17:39.360Z,76.20
2022-08-26T12:20:30.399Z,77.10
2022-08-26T12:22:59.078Z,75.90
2022-08-26T12:25:27.996Z,76.30
2022-08-26T12:28:05.431Z,76.50
2022-08-26T12:30:32.735Z,73.50
2022-08-26T12:33:15.756Z,74.70
2022-08-26T12:35:56.631Z,75.00
2022-08-26T12:38:25.896Z,73.40
2022-08-26T12:40:54.634Z,76.40
2022-08-26T12:43:45.230Z,74.30
2022-08-26T12:46:17.374Z,71.10
2022-08-26T12:48:49.585Z,74.70
2022-08-26T12:51:26.038Z,75.80
2022-08-26T12:53:54.040Z,74.70
2022-08-26T12:56:38.937Z,72.90
2022-08-26T12:59:19.798Z,72.20
2022-08-26T13:01:48.362Z,70.50
2022-08-26T13:04:33.736Z,72.30
2022-08-26T13:07:22.563Z,70.10
2022-08-26T13:09:51.716Z,70.80
2022-08-26T13:12:32.283Z,72.40
2022-08-26T13:15:01.117Z,71.50
2022-08-26T13:17:29.784Z,70.70
2022-08-26T13:20:03.220Z,70.80
2022-08-26T13:22:31.207Z,69.50
2022-08-26T13:24:58.453Z,68.40
2022-08-26T13:27:27.338Z,69.10
2022-08-26T13:29:55.461Z,69.60
2022-08-26T13:32:24.763Z,74.30
2022-08-26T13:34:56.317Z,73.30
2022-08-26T13:37:34.515Z,73.60
2022-08-26T13:40:05.591Z,73.20
2022-08-26T13:42:32.984Z,74.70
2022-08-26T13:45:02.357Z,73.20
2022-08-26T13:47:29.780Z,71.60
2022-08-26T13:49:56.982Z,71.50
2022-08-26T13:52:25.486Z,72.60
2022-08-26T13:55:02.016Z,73.00
2022-08-26T13:57:30.381Z,74.50
2022-08-26T13:59:59.384Z,71.20
2022-08-26T14:02:27.954Z,68.30
2022-08-26T14:04:55.866Z,69.00
2022-08-26T14:07:23.385Z,69.90
2022-08-26T14:09:50.664Z,70.30
2022-08-26T14:12:20.794Z,69.10
2022-08-26T14:14:48.193Z,72.90
2022-08-26T14:17:20.189Z,73.90
2022-08-26T14:19:49.476Z,74.20
2022-08-26T14:22:21.115Z,71.80
2022-08-26T14:24:49.204Z,68.00
2022-08-26T14:27:16.756Z,68.70
2022-08-26T14:29:44.024Z,69.40
2022-08-26T14:32:18.914Z,69.40
2022-08-26T14:34:49.067Z,71.20
2022-08-26T14:37:17.733Z,72.10
2022-08-26T14:39:45.963Z,71.70
2022-08-26T14:42:16.720Z,71.50
2022-08-26T14:44:46.086Z,72.00
2022-08-26T14:47:13.411Z,71.80
2022-08-26T14:49:40.686Z,69.30
2022-08-26T14:52:07.947Z,69.70
2022-08-26T14:54:35.148Z,70.00
2022-08-26T14:57:05.949Z,69.30
2022-08-26T14:59:37.133Z,68.90
2022-08-26T15:02:06.754Z,71.30
2022-08-26T15:04:34.545Z,73.00
2022-08-26T15:07:03.228Z,72.40
2022-08-26T15:09:33.217Z,74.30
2022-08-26T15:12:00.720Z,74.50
2022-08-26T15:14:32.682Z,75.40
2022-08-26T15:17:00.553Z,75.60
2022-08-26T15:19:28.138Z,75.40
2022-08-26T15:21:55.431Z,75.20
2022-08-26T15:24:25.330Z,75.40
2022-08-26T15:26:53.269Z,75.30
2022-08-26T15:29:21.248Z,72.50
2022-08-26T15:31:49.153Z,73.20
2022-08-26T15:34:17.242Z,71.40
2022-08-26T15:36:46.719Z,72.60
2022-08-26T15:39:16.166Z,73.60
2022-08-26T15:41:43.761Z,74.90
2022-08-26T15:44:12.136Z,74.50
2022-08-26T15:46:39.759Z,74.70
2022-08-26T15:49:07.580Z,75.30
2022-08-26T15:51:45.837Z,74.40
2022-08-26T15:54:16.518Z,74.70
2022-08-26T15:56:44.083Z,74.60
2022-08-26T15:59:12.035Z,75.00
2022-08-26T16:01:39.727Z,74.60
2022-08-26T16:04:07.376Z,74.10
2022-08-26T16:06:38.187Z,74.50
2022-08-26T16:09:07.540Z,74.30
2022-08-26T16:11:36.041Z,75.40
2022-08-26T16:14:04.612Z,75.40
2022-08-26T16:16:32.196Z,74.70
2022-08-26T16:19:01.275Z,75.20
2022-08-26T16:21:31.110Z,75.30
2022-08-26T16:23:58.905Z,75.90
2022-08-26T16:26:29.476Z,76.00
2022-08-26T16:28:56.795Z,74.90
2022-08-26T16:31:24.324Z,75.30
2022-08-26T16:33:51.752Z,76.40
2022-08-26T16:36:19.877Z,78.40
2022-08-26T16:38:53.163Z,80.10
2022-08-26T16:41:21.537Z,81.60
2022-08-26T16:43:49.428Z,81.10
2022-08-26T16:46:16.947Z,81.50
2022-08-26T16:48:45.488Z,81.90
2022-08-26T16:51:13.681Z,82.20
2022-08-26T16:53:40.886Z,81.80
2022-08-26T16:56:19.362Z,82.50
2022-08-26T16:58:48.282Z,83.10
2022-08-26T17:01:16.060Z,83.70
2022-08-26T17:03:43.380Z,84.90
2022-08-26T17:06:11.264Z,85.20
2022-08-26T17:08:39.859Z,85.90
2022-08-26T17:11:07.500Z,86.00
2022-08-26T17:13:36.179Z,86.70
2022-08-26T17:16:07.455Z,86.60
2022-08-26T17:18:35.206Z,86.70
2022-08-26T17:21:04.924Z,87.30
2022-08-26T17:23:32.454Z,87.40
2022-08-26T17:25:59.667Z,88.30
2022-08-26T17:28:26.983Z,87.30
2022-08-26T17:30:57.322Z,87.50
2022-08-26T17:33:25.467Z,87.70
2022-08-26T17:35:53.604Z,88.00
2022-08-26T17:38:21.665Z,88.10
2022-08-26T17:40:49.606Z,89.40
2022-08-26T17:43:17.805Z,89.60
2022-08-26T17:45:45.169Z,90.30
2022-08-26T17:48:13.050Z,90.70
2022-08-26T17:50:41.324Z,91.00
2022-08-26T17:53:12.574Z,91.20
2022-08-26T17:55:46.933Z,91.70
2022-08-26T17:58:15.263Z,91.80
2022-08-26T18:00:46.182Z,92.40
2022-08-26T18:03:13.827Z,92.50
2022-08-26T18:05:42.614Z,92.50
2022-08-26T18:08:10.224Z,92.70
2022-08-26T18:10:37.480Z,92.80
2022-08-26T18:13:04.754Z,93.20
2022-08-26T18:15:32.068Z,93.30
2022-08-26T18:17:59.854Z,93.30
2022-08-26T18:20:27.239Z,93.30
2022-08-26T18:22:54.519Z,93.50
2022-08-26T18:25:21.913Z,93.40
2022-08-26T18:27:49.350Z,93.60
2022-08-26T18:30:20.735Z,94.20
2022-08-26T18:32:49.126Z,94.20
2022-08-26T18:35:16.543Z,94.60
2022-08-26T18:37:44.545Z,94.30
2022-08-26T18:40:14.256Z,94.20
2022-08-26T18:42:41.880Z,94.20
2022-08-26T18:45:10.363Z,94.80
2022-08-26T18:47:43.909Z,95.10
2022-08-26T18:50:11.643Z,95.00
2022-08-26T18:52:39.271Z,95.00
2022-08-26T18:55:07.497Z,95.20
2022-08-26T18:57:34.755Z,95.20
2022-08-26T19:00:04.520Z,95.50
2022-08-26T19:02:32.716Z,96.20
2022-08-26T19:05:00.118Z,96.10
2022-08-26T19:07:27.354Z,96.10
2022-08-26T19:09:54.601Z,96.40
2022-08-26T19:12:22.416Z,96.80
2022-08-26T19:14:54.974Z,96.50
2022-08-26T19:17:22.582Z,96.80
2022-08-26T19:19:49.996Z,97.20
2022-08-26T19:22:17.238Z,97.30
2022-08-26T19:24:44.587Z,98.30
2022-08-26T19:27:14.899Z,99.00
2022-08-26T19:29:42.440Z,99.10
2022-08-26T19:32:09.727Z,99.80
2022-08-26T19:34:37.080Z,99.90
2022-08-26T19:37:04.729Z,99.90
2022-08-26T19:39:31.992Z,99.90
2022-08-26T19:42:00.318Z,99.90
2022-08-26T19:44:46.042Z,99.90
2022-08-26T19:47:13.383Z,99.90
2022-08-26T19:49:40.878Z,99.90
2022-08-26T19:52:08.414Z,99.90
2022-08-26T19:54:36.206Z,99.90
2022-08-26T19:57:03.791Z,99.90
2022-08-26T19:59:33.023Z,99.90
2022-08-26T20:02:00.715Z,99.90
2022-08-26T20:04:30.973Z,99.90
2022-08-26T20:07:00.508Z,99.90
2022-08-26T20:09:32.734Z,99.90
2022-08-26T20:12:00.738Z,99.90
2022-08-26T20:14:29.841Z,99.90
2022-08-26T20:16:57.744Z,99.90
2022-08-26T20:19:44.136Z,99.90
2022-08-26T20:22:12.409Z,99.90
2022-08-26T20:24:39.699Z,99.90
2022-08-26T20:27:08.078Z,99.90
2022-08-26T20:29:36.833Z,99.90
2022-08-26T20:32:06.532Z,99.90
2022-08-26T20:34:35.054Z,99.90
2022-08-26T20:37:03.089Z,99.90
2022-08-26T20:39:30.369Z,99.90
2022-08-26T20:41:58.285Z,99.90
2022-08-26T20:44:25.785Z,99.90
2022-08-26T20:49:21.043Z,99.90
2022-08-26T20:51:51.425Z,99.90
2022-08-26T20:54:23.924Z,99.90
2022-08-26T20:56:54.729Z,99.90
2022-08-26T20:59:22.001Z,99.90
